Forside
METAR-TAF:

METAR-TAF

Lufthavne :

Flughafen Kiel

Kiel, Tyskland

Breddekreds: 54-23N, længdekreds: 010-10E, højde: 31 m

Aktuelle vejr

Denne rapport blev lavet for 1 time og 20 minutter siden, kl. 13:50 UTC
Vind 11 kt fra vestsydvest med vindstød på up til 21 kt
Temperatur 20°C
Fugtighed 43%
Tryk 1023 hPa
Sigt 10 km eller mere
ingen skyer under 1500m og ingen cumulonimbus

METAR: EDHK 081350Z 25011G21KT CAVOK 20/07 Q1023

Tid: 17:10 (15:10 UTC)

Vejrudsigter

Denne rapport blev lavet for 1 time og 10 minutter siden, kl. 14:00 UTC
Foreløbig gælder fra 08 på 15 UTC til 08 på 18 UTC
Vind 4 kt fra sydvest
Sigt 10 km eller mere
ingen skyer under 1500m og ingen cumulonimbus
ændring
fra 08 på 16 UTC til 08 på 18 UTC
Vind 6 kt fra vestnordvest

TAF: EDHK 081400Z 0815/0818 22004KT CAVOK BECMG 0816/0818 29006KT

Vejrobservationer og prognoser fra mere end 4000 lufthavne (METAR og TAF).

De gule og røde prikker repræsenterer de meteorologiske stationer.

Flyt musen over at se navnet på stationen.

Så klik over at se vejr observationer og prognoser.

At skifte det kort: Klik på de grønne knapper med et sort kors for at zoome ind; på den grønne knap med en bindestreg for at zoome ud; eller på de grønne pile for tilstødende kort.


METAR-TAF: